Time;durP1;ratioP1;P1;durP2;ratioP2;P2;SDS_P1;SDS_P2;PMS_P1;PMS_P2;Temp;Humidity;BMP_temperature;BMP_pressure;BME280_temperature;BME280_humidity;BME280_pressure;Samples;Min_cycle;Max_cycle;Signal;HPM_P1;HPM_P2
2022/12/21 00:01:53;;;;;;;8.38;4.75;;;;;;;-2.17;67.33;95769.06;5029260;28;20029;-69
2022/12/21 00:04:18;;;;;;;6.45;4.68;;;;;;;-2.47;67.38;95728.88;5029237;28;20036;-70
2022/12/21 00:06:44;;;;;;;8.95;5.10;;;;;;;-2.07;66.91;95766.31;5029167;28;20467;-70
2022/12/21 00:09:12;;;;;;;7.57;4.80;;;;;;;-2.11;67.18;95769.81;5029282;28;20032;-70
2022/12/21 00:11:37;;;;;;;8.35;4.45;;;;;;;-2.18;67.12;95752.94;5013051;28;20121;-70
2022/12/21 00:14:03;;;;;;;7.45;5.20;;;;;;;-2.15;67.39;95762.25;5012747;28;20107;-70
2022/12/21 00:16:31;;;;;;;9.40;5.03;;;;;;;-1.99;67.00;95773.00;5029413;28;20064;-70
2022/12/21 00:18:57;;;;;;;8.13;5.10;;;;;;;-2.07;67.17;95775.69;5012919;28;20033;-69
2022/12/21 00:21:27;;;;;;;7.70;4.90;;;;;;;-2.08;67.18;95776.56;5012731;28;20037;-70
2022/12/21 00:23:53;;;;;;;8.73;5.10;;;;;;;-2.11;66.78;95761.34;5013191;28;20508;-70
2022/12/21 00:26:20;;;;;;;8.60;5.53;;;;;;;-1.98;66.53;95772.94;5030496;28;20125;-70
2022/12/21 00:28:45;;;;;;;8.35;5.00;;;;;;;-2.10;66.42;95747.72;5037333;28;20032;-70
2022/12/21 00:31:15;;;;;;;8.02;4.93;;;;;;;-1.98;66.48;95767.84;5036211;28;20040;-70
2022/12/21 00:33:41;;;;;;;8.32;5.05;;;;;;;-2.03;66.87;95764.59;5052627;28;20514;-70
2022/12/21 00:36:09;;;;;;;8.07;5.10;;;;;;;-1.94;66.66;95769.50;5035937;28;20037;-71
2022/12/21 00:38:34;;;;;;;8.40;5.25;;;;;;;-1.98;66.66;95765.31;5019047;28;20086;-71
2022/12/21 00:41:03;;;;;;;7.70;5.28;;;;;;;-2.05;66.66;95749.31;5035842;28;20045;-71
2022/12/21 00:43:29;;;;;;;12.57;6.05;;;;;;;-2.10;66.78;95752.81;5036309;28;20435;-70
2022/12/21 00:45:55;;;;;;;9.88;6.43;;;;;;;-2.08;66.74;95758.72;5035932;28;20043;-70
2022/12/21 00:48:20;;;;;;;9.98;6.43;;;;;;;-2.04;66.93;95767.97;5053475;28;20021;-70
2022/12/21 00:50:46;;;;;;;9.40;5.53;;;;;;;-2.03;66.47;95764.59;5039366;28;20037;-70
2022/12/21 00:53:11;;;;;;;9.00;6.15;;;;;;;-2.21;67.02;95757.25;4999480;28;20034;-70
2022/12/21 00:55:37;;;;;;;10.18;5.95;;;;;;;-2.23;67.28;95754.72;5015683;28;20037;-70
2022/12/21 00:58:03;;;;;;;14.13;6.78;;;;;;;-2.13;67.02;95746.06;5032201;28;20049;-71
2022/12/21 01:00:28;;;;;;;8.15;5.25;;;;;;;-2.09;66.99;95739.19;5033604;28;20029;-71
2022/12/21 01:02:54;;;;;;;11.52;7.10;;;;;;;-2.18;67.12;95731.75;5032069;28;20087;-71
2022/12/21 01:05:20;;;;;;;10.55;5.90;;;;;;;-2.21;67.36;95726.72;5033210;28;20041;-71
2022/12/21 01:07:46;;;;;;;9.20;5.72;;;;;;;-2.23;67.29;95714.00;5015909;28;20458;-71
2022/12/21 01:10:12;;;;;;;8.27;5.47;;;;;;;-2.27;67.36;95720.88;5032005;28;20041;-71
2022/12/21 01:12:37;;;;;;;9.13;6.15;;;;;;;-2.32;67.41;95714.19;5033206;28;20032;-71
2022/12/21 01:15:03;;;;;;;10.48;6.60;;;;;;;-2.32;67.53;95715.00;5015567;28;20037;-71
2022/12/21 01:17:29;;;;;;;10.73;6.28;;;;;;;-2.68;67.82;95700.41;5015360;28;20029;-70
2022/12/21 01:19:54;;;;;;;13.85;7.50;;;;;;;-2.33;67.00;95727.78;5015438;28;20404;-71
2022/12/21 01:22:19;;;;;;;14.93;8.55;;;;;;;-2.48;67.14;95724.66;5032927;28;20095;-71
2022/12/21 01:24:46;;;;;;;14.90;8.45;;;;;;;-2.79;67.75;95719.22;5031769;28;20115;-70
2022/12/21 01:27:12;;;;;;;13.48;8.00;;;;;;;-2.62;67.71;95728.28;5015261;28;20045;-70
2022/12/21 01:29:37;;;;;;;12.52;7.25;;;;;;;-2.67;67.32;95727.50;5044529;28;20017;-71
2022/12/21 01:32:03;;;;;;;13.43;8.10;;;;;;;-2.66;67.61;95732.59;5034795;28;20033;-71
2022/12/21 01:34:28;;;;;;;9.45;6.43;;;;;;;-2.68;67.35;95725.84;5052608;28;20031;-71
2022/12/21 01:36:53;;;;;;;10.43;6.85;;;;;;;-2.76;67.41;95708.16;5050781;28;20029;-71
2022/12/21 01:39:19;;;;;;;13.88;7.25;;;;;;;-2.71;67.97;95731.81;5051880;28;20028;-71
2022/12/21 01:41:44;;;;;;;10.90;6.32;;;;;;;-2.75;67.36;95725.94;5053015;28;20099;-70
2022/12/21 01:44:47;;;;;;;9.98;6.13;;;;;;;-2.75;67.53;95731.03;5052465;28;20029;-70
2022/12/21 01:47:14;;;;;;;11.02;6.95;;;;;;;-2.84;67.59;95725.25;5052452;28;20091;-71
2022/12/21 01:49:40;;;;;;;10.38;6.30;;;;;;;-2.90;67.36;95726.19;5042129;28;20072;-71
2022/12/21 01:52:07;;;;;;;11.25;6.28;;;;;;;-2.92;67.54;95716.06;5013842;28;20515;-71
2022/12/21 01:54:41;;;;;;;10.60;6.50;;;;;;;-2.90;67.29;95705.00;4997515;28;20498;-71
2022/12/21 01:57:07;;;;;;;10.85;6.50;;;;;;;-2.98;67.66;95707.66;5030102;28;20053;-71
2022/12/21 01:59:41;;;;;;;10.68;6.55;;;;;;;-3.15;67.70;95702.84;5030494;28;20029;-71
2022/12/21 02:02:09;;;;;;;8.77;5.72;;;;;;;-3.17;67.69;95702.06;5015582;28;20036;-71
2022/12/21 02:04:34;;;;;;;11.05;6.13;;;;;;;-3.18;67.71;95705.44;5030909;28;20025;-71
2022/12/21 02:07:00;;;;;;;10.32;6.32;;;;;;;-3.30;67.75;95680.22;5014504;28;20110;-71
2022/12/21 02:09:27;;;;;;;9.55;6.43;;;;;;;-3.29;68.19;95662.38;5014382;28;20034;-71
2022/12/21 02:11:53;;;;;;;15.55;7.70;;;;;;;-3.20;68.36;95681.78;4997993;28;20515;-71
2022/12/21 02:14:18;;;;;;;10.25;7.40;;;;;;;-3.21;69.20;95680.91;5014581;28;20026;-71
2022/12/21 02:16:53;;;;;;;12.65;7.35;;;;;;;-3.27;69.64;95691.16;5030884;28;20037;-71
2022/12/21 02:19:30;;;;;;;12.07;7.80;;;;;;;-3.48;70.27;95687.25;5030658;28;20124;-71
2022/12/21 02:21:56;;;;;;;13.50;7.22;;;;;;;-3.65;71.28;95691.72;5031822;28;20056;-71
2022/12/21 02:24:46;;;;;;;12.43;7.35;;;;;;;-3.54;71.30;95696.66;5030677;28;20537;-71
2022/12/21 02:27:37;;;;;;;16.45;8.20;;;;;;;-3.50;70.49;95695.75;5031715;28;20037;-71
2022/12/21 02:30:17;;;;;;;17.33;8.52;;;;;;;-3.64;70.98;95690.88;5037429;28;20048;-71
2022/12/21 02:33:07;;;;;;;12.73;7.13;;;;;;;-3.43;70.55;95677.00;5035193;28;20116;-71
2022/12/21 02:35:52;;;;;;;12.35;7.50;;;;;;;-3.45;70.87;95684.66;5033685;28;20036;-71
2022/12/21 02:38:55;;;;;;;13.65;7.80;;;;;;;-3.39;70.66;95684.56;5051348;28;20407;-71
2022/12/21 02:41:23;;;;;;;13.63;6.75;;;;;;;-3.35;70.40;95677.75;5050378;28;20029;-71
2022/12/21 02:44:24;;;;;;;13.02;7.28;;;;;;;-3.30;69.99;95683.59;5051434;28;20044;-71
2022/12/21 02:47:18;;;;;;;10.90;6.60;;;;;;;-3.49;70.65;95679.66;5050190;28;20503;-71
2022/12/21 02:49:54;;;;;;;13.35;7.55;;;;;;;-3.51;71.24;95678.81;5049747;28;20025;-71
2022/12/21 02:52:46;;;;;;;12.00;7.20;;;;;;;-3.60;71.69;95688.25;5050128;28;20055;-71
2022/12/21 02:55:12;;;;;;;;;;;;;;;-3.58;71.72;95684.88;5051575;28;20045;-71
2022/12/21 02:57:41;;;;;;;13.05;6.88;;;;;;;-3.51;71.49;95681.34;5051137;28;19924;-71
2022/12/21 03:00:09;;;;;;;11.38;6.80;;;;;;;-3.62;71.17;95689.16;5033801;28;20033;-71
2022/12/21 03:05:56;;;;;;;11.50;6.22;;;;;;;-3.51;70.80;95678.81;5050126;28;20083;-71
2022/12/21 03:08:45;;;;;;;11.13;6.68;;;;;;;-3.52;71.12;95683.06;5049747;28;20163;-71
2022/12/21 03:11:11;;;;;;;12.07;6.93;;;;;;;-3.57;70.94;95666.22;5034905;28;20068;-71
2022/12/21 03:13:39;;;;;;;11.10;6.63;;;;;;;-3.50;71.27;95677.97;5049688;28;20491;-71
2022/12/21 03:16:11;;;;;;;11.70;6.93;;;;;;;-3.41;71.03;95673.59;5051207;28;20039;-71
2022/12/21 03:18:58;;;;;;;14.30;7.53;;;;;;;-3.26;70.87;95672.53;5049952;28;20039;-71
2022/12/21 03:21:45;;;;;;;11.57;6.55;;;;;;;-3.41;71.46;95662.59;5051195;28;20032;-71
2022/12/21 03:24:18;;;;;;;10.75;6.78;;;;;;;-3.48;71.57;95656.78;5016780;28;20091;-71
2022/12/21 03:26:51;;;;;;;11.40;6.43;;;;;;;-3.33;70.73;95650.59;5051281;28;20106;-71
2022/12/21 03:29:19;;;;;;;10.77;6.40;;;;;;;-3.39;69.89;95646.47;5024391;28;20545;-71
2022/12/21 03:31:48;;;;;;;11.68;6.43;;;;;;;-3.37;70.50;95651.53;5013249;28;20049;-70
2022/12/21 03:34:17;;;;;;;11.93;6.35;;;;;;;-3.33;69.90;95640.44;5029554;28;20028;-71
2022/12/21 03:36:49;;;;;;;8.80;5.32;;;;;;;-3.32;69.84;95626.88;5013468;28;20124;-71
2022/12/21 03:39:16;;;;;;;9.50;5.95;;;;;;;-3.42;69.92;95622.81;5013319;28;20455;-70
2022/12/21 03:41:56;;;;;;;9.40;6.38;;;;;;;-3.46;69.68;95623.69;5013510;28;20065;-71
2022/12/21 03:44:31;;;;;;;10.57;5.95;;;;;;;-3.48;69.62;95617.78;5013784;28;20041;-71
2022/12/21 03:46:58;;;;;;;11.10;5.85;;;;;;;-3.51;70.26;95630.56;4997246;28;20069;-71
2022/12/21 03:49:30;;;;;;;11.90;7.25;;;;;;;-3.46;70.18;95616.91;5013111;28;20037;-72
2022/12/21 03:51:58;;;;;;;12.48;7.20;;;;;;;-3.60;70.46;95601.88;5012968;28;20042;-71
2022/12/21 03:54:50;;;;;;;11.35;6.75;;;;;;;-3.53;70.53;95612.81;5013050;28;20092;-71
2022/12/21 03:57:15;;;;;;;12.95;6.75;;;;;;;-3.49;70.63;95598.34;5015341;28;20138;-70
2022/12/21 03:59:42;;;;;;;10.65;6.90;;;;;;;-3.50;70.13;95586.53;5012927;28;20484;-70
2022/12/21 04:02:15;;;;;;;11.80;6.88;;;;;;;-3.42;70.17;95610.09;5016008;28;20029;-70
2022/12/21 04:04:57;;;;;;;12.57;7.65;;;;;;;-3.55;70.48;95603.53;5001394;28;20029;-71
2022/12/21 04:07:24;;;;;;;11.38;6.95;;;;;;;-3.63;70.23;95591.78;5018171;28;20033;-70
2022/12/21 04:10:06;;;;;;;10.52;6.43;;;;;;;-3.62;71.02;95601.09;5000364;28;20041;-71
2022/12/21 04:12:38;;;;;;;9.32;6.00;;;;;;;-3.68;70.82;95607.94;5000337;28;20025;-70
2022/12/21 04:15:08;;;;;;;10.10;6.18;;;;;;;-3.76;70.81;95610.63;5032124;28;20488;-71
2022/12/21 04:17:33;;;;;;;9.95;5.85;;;;;;;-3.77;70.53;95603.00;5031998;28;20529;-71
2022/12/21 04:19:59;;;;;;;10.75;6.10;;;;;;;-3.73;70.99;95589.38;5047731;28;20033;-70
2022/12/21 04:28:09;;;;;;;10.35;6.60;;;;;;;-3.82;70.65;95601.38;5053036;28;20479;-71
2022/12/21 04:30:38;;;;;;;11.63;7.85;;;;;;;-3.87;71.07;95589.63;5033889;28;20091;-71
2022/12/21 04:33:04;;;;;;;11.43;6.97;;;;;;;-3.74;70.62;95598.72;5030300;28;20033;-71
2022/12/21 04:35:30;;;;;;;11.93;7.80;;;;;;;-3.78;70.53;95586.94;5035640;28;20044;-71
2022/12/21 04:37:55;;;;;;;13.98;9.32;;;;;;;-3.76;71.04;95600.47;5052542;28;20029;-71
2022/12/21 04:40:21;;;;;;;9.82;6.70;;;;;;;-3.95;70.92;95581.28;5042844;28;20045;-70
2022/12/21 04:42:46;;;;;;;9.38;6.60;;;;;;;-3.93;70.16;95593.09;5039927;28;20029;-70
2022/12/21 04:45:11;;;;;;;12.98;7.97;;;;;;;-4.03;69.95;95581.38;5033409;28;20462;-70
2022/12/21 04:47:37;;;;;;;12.52;7.47;;;;;;;-3.96;70.41;95585.50;5053392;28;20449;-71
2022/12/21 04:50:03;;;;;;;14.77;9.65;;;;;;;-4.06;70.57;95592.41;5050408;28;20036;-70
2022/12/21 04:52:30;;;;;;;14.82;9.77;;;;;;;-3.94;69.64;95588.03;5049566;28;20029;-70
2022/12/21 04:54:56;;;;;;;18.17;10.75;;;;;;;-4.01;69.88;95579.66;5031316;28;20060;-70
2022/12/21 04:57:21;;;;;;;17.42;11.32;;;;;;;-4.15;70.53;95561.22;5053262;28;20044;-70
2022/12/21 04:59:47;;;;;;;17.45;10.98;;;;;;;-4.20;70.60;95558.75;5050465;28;20033;-71
2022/12/21 05:02:12;;;;;;;22.55;13.18;;;;;;;-4.26;70.75;95566.47;5048006;28;20041;-70
2022/12/21 05:04:38;;;;;;;22.95;12.85;;;;;;;-4.37;71.07;95570.84;5034251;28;20052;-71
2022/12/21 05:07:03;;;;;;;11.52;8.13;;;;;;;-4.39;71.34;95577.63;5015667;28;20033;-72
2022/12/21 05:09:29;;;;;;;12.00;7.00;;;;;;;-4.29;71.75;95579.16;5048597;28;20415;-71
2022/12/21 05:11:54;;;;;;;11.93;6.80;;;;;;;-4.20;71.76;95583.31;5034165;28;20064;-71
2022/12/21 05:14:20;;;;;;;11.02;6.32;;;;;;;-4.24;72.64;95587.56;5034172;28;20030;-71
2022/12/21 05:16:46;;;;;;;9.35;6.43;;;;;;;-4.32;72.55;95585.16;5048339;28;20040;-70
2022/12/21 05:19:11;;;;;;;10.73;6.20;;;;;;;-4.17;72.72;95584.09;5037465;28;20052;-70
2022/12/21 05:21:37;;;;;;;11.38;6.47;;;;;;;-4.10;72.70;95584.84;5022580;28;20034;-71
2022/12/21 05:24:02;;;;;;;11.93;7.03;;;;;;;-3.96;72.08;95589.72;5015250;28;20041;-71
2022/12/21 05:26:28;;;;;;;12.95;7.05;;;;;;;-3.88;71.94;95580.31;5034865;28;20064;-70
2022/12/21 05:28:53;;;;;;;10.70;6.53;;;;;;;-3.91;71.87;95560.88;5041711;28;20029;-71
2022/12/21 05:31:19;;;;;;;11.50;7.18;;;;;;;-3.75;71.30;95584.34;5036681;28;20037;-71
2022/12/21 05:33:44;;;;;;;11.27;7.07;;;;;;;-3.61;70.81;95579.06;5037958;28;20396;-70
2022/12/21 05:36:11;;;;;;;11.30;7.38;;;;;;;-3.69;71.01;95566.47;5038028;28;20091;-70
2022/12/21 05:38:36;;;;;;;11.45;7.35;;;;;;;-3.92;70.77;95531.28;5041351;28;20029;-75
2022/12/21 05:41:02;;;;;;;17.08;9.30;;;;;;;-3.64;70.64;95572.31;5033883;28;20566;-71
2022/12/21 05:43:27;;;;;;;17.38;10.05;;;;;;;-3.61;70.06;95572.28;5020339;28;20041;-72
2022/12/21 05:45:53;;;;;;;19.95;10.82;;;;;;;-3.49;70.48;95590.72;5028591;28;20029;-72
2022/12/21 05:48:18;;;;;;;11.80;7.15;;;;;;;-3.52;69.93;95586.53;5028086;28;20029;-71
2022/12/21 05:50:44;;;;;;;11.23;6.35;;;;;;;-3.64;70.39;95582.50;5022648;28;20029;-71
2022/12/21 05:53:09;;;;;;;10.70;6.63;;;;;;;-3.69;70.13;95586.78;5030657;28;20072;-70
2022/12/21 05:55:35;;;;;;;15.05;9.25;;;;;;;-3.58;70.04;95593.41;5032125;28;20041;-70
2022/12/21 05:58:00;;;;;;;12.93;8.00;;;;;;;-3.60;70.69;95593.44;5021867;28;20049;-70
2022/12/21 06:00:26;;;;;;;11.68;6.55;;;;;;;-3.58;70.40;95591.72;5048832;28;20487;-70
2022/12/21 06:02:51;;;;;;;11.13;6.80;;;;;;;-3.53;70.54;95589.94;5050074;28;20507;-70
2022/12/21 06:05:17;;;;;;;13.13;7.30;;;;;;;-3.66;70.60;95571.50;5050241;28;20393;-70
2022/12/21 06:07:42;;;;;;;11.45;7.13;;;;;;;-3.56;70.59;95579.84;5050205;28;20033;-70
2022/12/21 06:10:08;;;;;;;32.10;15.85;;;;;;;-3.47;70.38;95583.94;5048797;28;20033;-70
2022/12/21 06:12:34;;;;;;;59.60;22.40;;;;;;;-3.47;70.57;95578.84;5050439;28;20057;-70
2022/12/21 06:14:59;;;;;;;58.05;23.60;;;;;;;-3.37;69.84;95585.47;5014254;28;20488;-70
2022/12/21 06:17:28;;;;;;;36.92;16.42;;;;;;;-3.43;70.45;95580.47;5019831;28;20119;-70
2022/12/21 06:19:54;;;;;;;37.40;17.00;;;;;;;-3.46;70.16;95583.88;5012532;28;20103;-70
2022/12/21 06:22:19;;;;;;;33.40;13.52;;;;;;;-3.53;70.47;95576.41;5048296;28;20029;-70
2022/12/21 06:24:45;;;;;;;63.42;25.00;;;;;;;-3.67;70.62;95559.69;5047903;28;20043;-70
2022/12/21 06:27:10;;;;;;;18.75;10.45;;;;;;;-3.62;70.49;95573.16;5048145;28;20045;-70
2022/12/21 06:29:35;;;;;;;13.75;7.50;;;;;;;-3.60;70.55;95558.69;5031080;28;20029;-70
2022/12/21 06:32:01;;;;;;;12.57;7.45;;;;;;;-3.66;70.67;95558.81;5049875;28;20040;-70
2022/12/21 06:34:26;;;;;;;12.30;7.85;;;;;;;-3.72;70.97;95563.16;5049756;28;20032;-70
2022/12/21 06:36:52;;;;;;;10.93;6.68;;;;;;;-3.72;71.12;95548.75;5030349;28;20613;-70
2022/12/21 06:39:17;;;;;;;11.13;6.90;;;;;;;-3.64;71.11;95562.16;5030355;28;20550;-70
2022/12/21 06:41:43;;;;;;;10.15;6.65;;;;;;;-3.56;71.12;95556.13;5045623;28;20033;-70
2022/12/21 06:44:08;;;;;;;10.85;6.88;;;;;;;-3.65;71.42;95564.72;5050254;28;20040;-70
2022/12/21 06:46:34;;;;;;;11.63;7.53;;;;;;;-3.53;71.47;95566.25;5033078;28;20052;-70
2022/12/21 06:48:59;;;;;;;10.23;6.63;;;;;;;-3.50;71.08;95558.56;5050163;28;20028;-70
2022/12/21 06:51:25;;;;;;;49.85;21.98;;;;;;;-3.40;70.84;95567.69;5033089;28;20039;-70
2022/12/21 06:53:52;;;;;;;187.90;60.85;;;;;;;-3.58;71.66;95573.94;5051222;28;20029;-70
2022/12/21 06:56:22;;;;;;;100.00;39.70;;;;;;;-3.69;71.81;95563.94;5033729;28;20424;-70
2022/12/21 06:58:48;;;;;;;91.20;36.58;;;;;;;-3.38;71.22;95566.81;5033374;28;20047;-70
2022/12/21 07:01:24;;;;;;;80.07;32.67;;;;;;;-3.21;71.12;95576.69;5016111;28;20032;-70
2022/12/21 07:03:50;;;;;;;82.07;34.35;;;;;;;-3.16;70.90;95564.75;5049165;28;20025;-70
2022/12/21 07:06:16;;;;;;;56.17;24.95;;;;;;;-3.08;71.34;95589.22;5049159;28;20048;-70
2022/12/21 07:08:41;;;;;;;48.83;23.23;;;;;;;-3.00;71.28;95585.66;5049684;28;20036;-71
2022/12/21 07:11:09;;;;;;;63.08;27.80;;;;;;;-3.01;71.21;95585.69;5032061;28;20205;-70
2022/12/21 07:13:35;;;;;;;52.83;23.85;;;;;;;-3.03;71.27;95567.94;5049802;28;20060;-71
2022/12/21 07:16:00;;;;;;;83.20;37.03;;;;;;;-2.83;70.91;95589.63;5048749;28;20040;-70
2022/12/21 07:18:26;;;;;;;94.45;43.13;;;;;;;-2.74;70.90;95597.91;5048838;28;20025;-70
2022/12/21 07:20:58;;;;;;;95.80;43.00;;;;;;;-2.66;70.60;95589.28;5041633;28;20419;-70
2022/12/21 07:23:26;;;;;;;75.85;37.80;;;;;;;-2.49;70.26;95595.72;5039105;28;20067;-70
2022/12/21 07:25:52;;;;;;;71.32;34.33;;;;;;;-2.52;70.36;95597.50;5048980;28;20400;-71
2022/12/21 07:28:18;;;;;;;59.85;31.02;;;;;;;-2.38;70.21;95607.41;5034274;28;20029;-70
2022/12/21 07:30:47;;;;;;;51.72;26.85;;;;;;;-2.35;70.32;95605.63;5045668;28;20037;-70
2022/12/21 07:33:16;;;;;;;47.97;26.17;;;;;;;-2.37;70.19;95593.81;5036325;28;20127;-70
2022/12/21 07:35:42;;;;;;;50.35;28.27;;;;;;;-2.29;70.11;95597.88;5041447;28;20494;-70
2022/12/21 07:38:07;;;;;;;43.08;24.88;;;;;;;-2.33;70.03;95580.16;5048046;28;20096;-71
2022/12/21 07:40:33;;;;;;;34.60;19.73;;;;;;;-2.31;70.24;95597.09;5048698;28;20045;-70
2022/12/21 07:42:58;;;;;;;54.47;30.48;;;;;;;-2.32;69.78;95581.81;5050034;28;20021;-71
2022/12/21 07:45:23;;;;;;;45.47;27.25;;;;;;;-2.26;69.45;95571.50;5031995;28;20048;-70
2022/12/21 07:47:49;;;;;;;40.95;24.27;;;;;;;-2.20;69.52;95575.63;5049686;28;20032;-71
2022/12/21 07:50:14;;;;;;;28.77;16.60;;;;;;;-2.12;69.68;95574.59;5049696;28;20044;-71
2022/12/21 07:52:40;;;;;;;25.80;15.02;;;;;;;-2.21;70.15;95568.88;5049681;28;20025;-71
2022/12/21 07:55:06;;;;;;;27.48;14.63;;;;;;;-2.21;69.35;95551.06;5049752;28;20056;-71
2022/12/21 07:57:31;;;;;;;27.30;14.43;;;;;;;-2.08;69.82;95560.13;5007559;28;1176420;-70
2022/12/21 07:59:57;;;;;;;34.55;19.83;;;;;;;-2.03;69.96;95563.41;5049243;28;20037;-70
2022/12/21 08:02:23;;;;;;;37.63;22.55;;;;;;;-2.03;69.97;95559.16;5050687;28;20040;-71
2022/12/21 08:04:48;;;;;;;35.10;20.08;;;;;;;-1.96;69.65;95549.66;5050481;28;20482;-70
2022/12/21 08:07:14;;;;;;;37.03;19.77;;;;;;;-1.85;69.37;95568.06;5049137;28;20503;-71
2022/12/21 08:09:39;;;;;;;35.72;20.20;;;;;;;-1.87;69.75;95569.81;5050433;28;20484;-71
2022/12/21 08:12:05;;;;;;;40.45;22.52;;;;;;;-1.92;69.56;95561.47;5049034;28;20585;-70
2022/12/21 08:14:30;;;;;;;40.10;22.02;;;;;;;-1.83;69.02;95571.44;5050230;28;20024;-71
2022/12/21 08:16:56;;;;;;;39.70;21.45;;;;;;;-1.91;69.49;95565.66;5044033;28;20087;-70
2022/12/21 08:19:21;;;;;;;38.25;22.27;;;;;;;-1.93;69.46;95562.31;5049961;28;20496;-69
2022/12/21 08:21:47;;;;;;;34.25;21.83;;;;;;;-1.99;69.51;95572.63;5050419;28;20439;-70
2022/12/21 08:24:12;;;;;;;39.83;22.40;;;;;;;-1.96;69.58;95559.00;5050035;28;20029;-70
2022/12/21 08:26:38;;;;;;;38.40;21.55;;;;;;;-1.95;69.86;95566.63;5049208;28;20041;-70
2022/12/21 08:29:03;;;;;;;31.67;19.23;;;;;;;-1.84;69.73;95562.13;5049060;28;20526;-70
2022/12/21 08:31:29;;;;;;;27.60;18.00;;;;;;;-1.57;69.55;95559.78;5049070;28;20091;-70
2022/12/21 08:33:54;;;;;;;25.55;15.52;;;;;;;-1.46;69.11;95544.25;5030512;28;20569;-70
2022/12/21 08:36:21;;;;;;;26.35;15.60;;;;;;;-1.30;68.51;95548.09;5012895;28;20465;-70
2022/12/21 08:38:47;;;;;;;24.48;13.68;;;;;;;-1.26;67.32;95542.03;5029248;28;20095;-71
2022/12/21 08:41:12;;;;;;;23.27;13.98;;;;;;;-1.13;67.53;95532.38;5027958;28;20037;-70
2022/12/21 08:43:38;;;;;;;26.60;13.70;;;;;;;-1.02;67.37;95524.44;5028312;28;20492;-71
2022/12/21 08:46:04;;;;;;;22.00;13.25;;;;;;;-0.84;67.01;95523.13;5016021;28;20034;-69
2022/12/21 08:48:30;;;;;;;20.02;10.65;;;;;;;-0.76;66.22;95514.38;5027351;28;20134;-70
2022/12/21 08:50:55;;;;;;;18.40;10.98;;;;;;;-0.44;65.81;95504.16;5036187;28;20524;-70
2022/12/21 08:53:21;;;;;;;17.80;11.02;;;;;;;-0.08;64.47;95505.63;5043461;28;20086;-70
2022/12/21 08:55:49;;;;;;;19.83;11.20;;;;;;;0.06;64.09;95506.91;5035095;28;20411;-71
2022/12/21 08:58:15;;;;;;;20.60;11.77;;;;;;;0.09;63.84;95492.31;5036899;28;20046;-70
2022/12/21 09:00:42;;;;;;;17.63;11.35;;;;;;;0.52;62.76;95501.16;5030666;28;20041;-70
2022/12/21 09:03:08;;;;;;;20.80;12.05;;;;;;;0.46;63.46;95491.16;5051562;28;20033;-70
2022/12/21 09:05:33;;;;;;;26.63;13.25;;;;;;;0.63;63.79;95493.16;5051889;28;20043;-70
2022/12/21 09:07:59;;;;;;;32.17;16.63;;;;;;;0.74;62.38;95478.28;5052848;28;20396;-70
2022/12/21 09:10:25;;;;;;;25.02;14.50;;;;;;;0.85;62.45;95473.63;5034925;28;20033;-70
2022/12/21 09:12:50;;;;;;;29.88;15.65;;;;;;;1.06;61.84;95472.06;5051634;28;20388;-70
2022/12/21 09:15:16;;;;;;;24.70;14.30;;;;;;;1.31;59.89;95461.78;5052995;28;20029;-70
2022/12/21 09:17:42;;;;;;;29.08;14.68;;;;;;;1.44;60.31;95469.00;5034569;28;20032;-70
2022/12/21 09:20:08;;;;;;;25.55;15.10;;;;;;;1.56;59.46;95469.41;5050970;28;20028;-70
2022/12/21 09:22:33;;;;;;;28.52;14.93;;;;;;;1.68;58.60;95464.72;5052234;28;20037;-70
2022/12/21 09:24:58;;;;;;;25.23;16.45;;;;;;;1.65;59.15;95464.84;5033154;28;20128;-70
2022/12/21 09:27:24;;;;;;;30.55;18.95;;;;;;;1.58;59.01;95453.13;5030895;28;20162;-70
2022/12/21 09:29:49;;;;;;;42.30;19.48;;;;;;;1.65;58.97;95459.72;5032561;28;20060;-70
2022/12/21 09:32:15;;;;;;;35.85;19.63;;;;;;;1.74;58.73;95447.38;5031960;28;20038;-70
2022/12/21 09:34:41;;;;;;;29.00;17.33;;;;;;;1.97;58.86;95435.41;5032092;28;20033;-70
2022/12/21 09:37:06;;;;;;;30.95;16.08;;;;;;;2.07;59.39;95439.28;5031979;28;20057;-70
2022/12/21 09:39:31;;;;;;;33.60;17.00;;;;;;;2.15;58.11;95415.91;5033366;28;20064;-70
2022/12/21 09:42:19;;;;;;;39.15;20.48;;;;;;;2.00;57.63;95423.28;5031777;28;20038;-70
2022/12/21 09:45:09;;;;;;;35.80;19.63;;;;;;;1.74;57.64;95419.19;5032924;28;20087;-70
2022/12/21 09:47:43;;;;;;;34.47;17.17;;;;;;;1.58;57.70;95407.03;5031673;28;20068;-70
2022/12/21 09:50:24;;;;;;;28.75;16.20;;;;;;;1.51;57.59;95412.41;5015828;28;20095;-70
2022/12/21 09:52:54;;;;;;;29.02;16.30;;;;;;;1.68;57.59;95395.56;5015696;28;20033;-70
2022/12/21 09:55:21;;;;;;;26.90;14.32;;;;;;;2.06;57.01;95391.47;4999306;28;20030;-70
2022/12/21 09:57:51;;;;;;;27.27;15.13;;;;;;;2.23;56.83;95401.06;5014771;28;20100;-70
2022/12/21 10:00:21;;;;;;;27.73;14.95;;;;;;;2.19;56.23;95396.94;5030928;28;20049;-70
2022/12/21 10:02:50;;;;;;;26.98;14.55;;;;;;;2.36;55.81;95403.94;5032769;28;20032;-70
2022/12/21 10:05:21;;;;;;;26.33;15.05;;;;;;;2.49;55.57;95394.84;5031587;28;20041;-70
2022/12/21 10:08:18;;;;;;;26.83;13.80;;;;;;;2.28;56.42;95398.28;5031590;28;20041;-70
2022/12/21 10:11:08;;;;;;;23.38;13.70;;;;;;;2.36;56.42;95394.50;5031543;28;20120;-70
2022/12/21 10:13:53;;;;;;;21.92;12.63;;;;;;;1.93;56.75;95370.63;5031457;28;20482;-70
2022/12/21 10:16:49;;;;;;;22.08;12.30;;;;;;;2.13;56.33;95380.06;4999712;28;20128;-70
2022/12/21 10:19:30;;;;;;;20.48;13.40;;;;;;;2.40;55.15;95375.53;5031283;28;20038;-70
2022/12/21 10:22:16;;;;;;;20.30;11.98;;;;;;;2.29;55.95;95348.69;5032196;28;20488;-70
2022/12/21 10:24:47;;;;;;;21.88;13.65;;;;;;;2.41;57.83;95366.13;5031227;28;20025;-70
2022/12/21 10:27:17;;;;;;;25.17;14.48;;;;;;;2.59;56.94;95347.38;5031124;28;20593;-70
2022/12/21 10:29:45;;;;;;;27.90;15.13;;;;;;;2.35;57.45;95326.19;5031974;28;20029;-70
2022/12/21 10:32:11;;;;;;;24.80;14.48;;;;;;;2.30;57.74;95335.78;5014080;28;20148;-70
2022/12/21 10:34:36;;;;;;;24.23;14.40;;;;;;;2.41;57.80;95335.34;5014245;28;20087;-70
2022/12/21 10:37:10;;;;;;;35.38;17.45;;;;;;;2.72;57.26;95334.84;5031658;28;20033;-70
2022/12/21 10:39:36;;;;;;;27.85;15.32;;;;;;;2.86;56.62;95336.81;5015141;28;20036;-70
2022/12/21 10:42:12;;;;;;;20.73;13.90;;;;;;;2.86;56.05;95323.97;5030334;28;20025;-70
2022/12/21 10:44:39;;;;;;;21.45;14.23;;;;;;;2.73;55.89;95325.41;5014914;28;20111;-70
2022/12/21 10:47:21;;;;;;;24.65;13.88;;;;;;;2.76;56.07;95331.25;5013932;28;20035;-70
2022/12/21 10:50:06;;;;;;;23.27;14.02;;;;;;;3.06;55.40;95328.22;5030414;28;20384;-71
2022/12/21 10:52:44;;;;;;;22.42;14.55;;;;;;;3.22;54.67;95326.63;5030164;28;20033;-70
2022/12/21 10:55:19;;;;;;;24.63;14.52;;;;;;;3.38;54.34;95320.78;5030170;28;20057;-70
2022/12/21 10:58:05;;;;;;;22.85;14.07;;;;;;;3.38;54.26;95313.91;5031240;28;20045;-70
2022/12/21 11:00:32;;;;;;;23.65;14.77;;;;;;;3.57;53.20;95319.03;5014012;28;20503;-70
2022/12/21 11:03:03;;;;;;;23.33;15.02;;;;;;;3.58;53.59;95303.50;5013711;28;20480;-70
2022/12/21 11:05:39;;;;;;;24.65;15.68;;;;;;;3.76;53.05;95312.09;5013860;28;20115;-71
2022/12/21 11:08:14;;;;;;;24.23;15.55;;;;;;;3.79;53.81;95303.41;5029922;28;20033;-70
2022/12/21 11:10:44;;;;;;;24.63;15.23;;;;;;;3.96;51.84;95298.28;5031166;28;20037;-71
2022/12/21 11:13:10;;;;;;;26.08;14.93;;;;;;;4.01;51.77;95303.16;4997277;28;20037;-70
2022/12/21 11:15:36;;;;;;;24.83;14.25;;;;;;;3.95;52.51;95288.88;5030130;28;20037;-71
2022/12/21 11:18:01;;;;;;;28.27;15.27;;;;;;;3.85;51.86;95289.44;5013377;28;20034;-71
2022/12/21 11:20:27;;;;;;;26.48;15.15;;;;;;;3.91;51.68;95283.97;5030131;28;20038;-71
2022/12/21 11:22:53;;;;;;;23.42;14.95;;;;;;;4.09;52.77;95283.06;5013451;28;20176;-71
2022/12/21 11:25:20;;;;;;;26.35;15.40;;;;;;;3.93;53.93;95277.88;5029713;28;20045;-71
2022/12/21 11:27:47;;;;;;;24.90;15.02;;;;;;;4.17;53.94;95278.34;4997109;28;20586;-71
2022/12/21 11:30:42;;;;;;;26.63;15.68;;;;;;;4.15;53.88;95272.47;4996915;28;20408;-71
2022/12/21 11:33:16;;;;;;;28.45;15.75;;;;;;;4.24;53.68;95268.63;5025269;28;20076;-71
2022/12/21 11:35:42;;;;;;;36.53;19.80;;;;;;;4.26;53.62;95266.78;5014051;28;20079;-71
2022/12/21 11:38:13;;;;;;;33.50;17.00;;;;;;;4.25;54.13;95258.22;5027723;28;20033;-71
2022/12/21 11:40:39;;;;;;;25.92;15.27;;;;;;;4.25;54.21;95252.25;4997159;28;20116;-71
2022/12/21 11:43:14;;;;;;;28.45;15.85;;;;;;;4.32;53.34;95248.47;5013077;28;20468;-71